sensor_id;sensor_type;location;lat;lon;timestamp;P1;durP1;ratioP1;P2;durP2;ratioP2
4694;SDS011;2361;49.540;8.390;2023-06-22T00:01:19;5.67;;;4.47;;
4694;SDS011;2361;49.540;8.390;2023-06-22T00:03:48;5.47;;;4.43;;
4694;SDS011;2361;49.540;8.390;2023-06-22T00:06:15;9.20;;;4.37;;
4694;SDS011;2361;49.540;8.390;2023-06-22T00:08:42;3.97;;;3.63;;
4694;SDS011;2361;49.540;8.390;2023-06-22T00:11:09;5.57;;;3.90;;
4694;SDS011;2361;49.540;8.390;2023-06-22T00:13:37;3.73;;;3.43;;
4694;SDS011;2361;49.540;8.390;2023-06-22T00:16:05;5.63;;;4.40;;
4694;SDS011;2361;49.540;8.390;2023-06-22T00:18:32;3.67;;;3.33;;
4694;SDS011;2361;49.540;8.390;2023-06-22T00:20:59;4.73;;;3.20;;
4694;SDS011;2361;49.540;8.390;2023-06-22T00:23:26;4.40;;;3.70;;
4694;SDS011;2361;49.540;8.390;2023-06-22T00:25:53;5.80;;;3.70;;
4694;SDS011;2361;49.540;8.390;2023-06-22T00:28:20;6.87;;;4.40;;
4694;SDS011;2361;49.540;8.390;2023-06-22T00:30:48;5.40;;;4.10;;
4694;SDS011;2361;49.540;8.390;2023-06-22T00:33:16;4.03;;;3.60;;
4694;SDS011;2361;49.540;8.390;2023-06-22T00:35:43;4.40;;;3.10;;
4694;SDS011;2361;49.540;8.390;2023-06-22T00:38:10;4.10;;;3.20;;
4694;SDS011;2361;49.540;8.390;2023-06-22T00:40:38;3.90;;;2.80;;
4694;SDS011;2361;49.540;8.390;2023-06-22T00:43:05;2.80;;;2.27;;
4694;SDS011;2361;49.540;8.390;2023-06-22T00:45:32;4.53;;;2.93;;
4694;SDS011;2361;49.540;8.390;2023-06-22T00:48:00;5.13;;;3.80;;
4694;SDS011;2361;49.540;8.390;2023-06-22T00:50:28;2.70;;;2.50;;
4694;SDS011;2361;49.540;8.390;2023-06-22T00:53:05;4.83;;;4.07;;
4694;SDS011;2361;49.540;8.390;2023-06-22T00:55:38;7.03;;;5.13;;
4694;SDS011;2361;49.540;8.390;2023-06-22T00:58:13;8.90;;;4.60;;
4694;SDS011;2361;49.540;8.390;2023-06-22T01:00:40;5.37;;;4.43;;
4694;SDS011;2361;49.540;8.390;2023-06-22T01:03:08;5.27;;;4.20;;
4694;SDS011;2361;49.540;8.390;2023-06-22T01:05:36;5.97;;;4.83;;
4694;SDS011;2361;49.540;8.390;2023-06-22T01:08:06;6.00;;;5.10;;
4694;SDS011;2361;49.540;8.390;2023-06-22T01:16:33;5.87;;;4.60;;
4694;SDS011;2361;49.540;8.390;2023-06-22T01:19:14;5.07;;;4.43;;
4694;SDS011;2361;49.540;8.390;2023-06-22T01:22:07;5.93;;;4.73;;
4694;SDS011;2361;49.540;8.390;2023-06-22T01:24:45;4.70;;;4.30;;
4694;SDS011;2361;49.540;8.390;2023-06-22T01:27:18;6.00;;;4.30;;
4694;SDS011;2361;49.540;8.390;2023-06-22T01:29:59;4.53;;;4.03;;
4694;SDS011;2361;49.540;8.390;2023-06-22T01:32:32;5.77;;;5.03;;
4694;SDS011;2361;49.540;8.390;2023-06-22T01:35:03;6.77;;;5.00;;
4694;SDS011;2361;49.540;8.390;2023-06-22T01:37:33;8.67;;;4.97;;
4694;SDS011;2361;49.540;8.390;2023-06-22T01:40:02;6.00;;;4.30;;
4694;SDS011;2361;49.540;8.390;2023-06-22T01:42:32;4.77;;;4.00;;
4694;SDS011;2361;49.540;8.390;2023-06-22T01:45:00;4.60;;;3.97;;
4694;SDS011;2361;49.540;8.390;2023-06-22T01:47:28;5.53;;;4.07;;
4694;SDS011;2361;49.540;8.390;2023-06-22T01:49:56;6.00;;;4.87;;
4694;SDS011;2361;49.540;8.390;2023-06-22T01:52:23;10.13;;;4.77;;
4694;SDS011;2361;49.540;8.390;2023-06-22T01:54:50;7.03;;;5.10;;
4694;SDS011;2361;49.540;8.390;2023-06-22T01:57:17;6.57;;;5.00;;
4694;SDS011;2361;49.540;8.390;2023-06-22T02:00:01;8.40;;;5.80;;
4694;SDS011;2361;49.540;8.390;2023-06-22T02:02:43;11.03;;;6.90;;
4694;SDS011;2361;49.540;8.390;2023-06-22T02:05:22;7.87;;;6.13;;
4694;SDS011;2361;49.540;8.390;2023-06-22T02:07:56;10.30;;;7.07;;
4694;SDS011;2361;49.540;8.390;2023-06-22T02:10:34;7.60;;;5.97;;
4694;SDS011;2361;49.540;8.390;2023-06-22T02:13:05;7.80;;;5.20;;
4694;SDS011;2361;49.540;8.390;2023-06-22T02:15:34;7.70;;;5.60;;
4694;SDS011;2361;49.540;8.390;2023-06-22T02:18:02;8.90;;;5.70;;
4694;SDS011;2361;49.540;8.390;2023-06-22T02:20:30;8.27;;;5.97;;
4694;SDS011;2361;49.540;8.390;2023-06-22T02:22:57;8.17;;;6.10;;
4694;SDS011;2361;49.540;8.390;2023-06-22T02:25:24;7.17;;;6.10;;
4694;SDS011;2361;49.540;8.390;2023-06-22T02:27:51;9.13;;;6.30;;
4694;SDS011;2361;49.540;8.390;2023-06-22T02:30:18;10.53;;;6.80;;
4694;SDS011;2361;49.540;8.390;2023-06-22T02:32:45;9.47;;;5.97;;
4694;SDS011;2361;49.540;8.390;2023-06-22T02:35:12;7.20;;;5.57;;
4694;SDS011;2361;49.540;8.390;2023-06-22T02:37:39;8.70;;;5.83;;
4694;SDS011;2361;49.540;8.390;2023-06-22T02:40:10;7.70;;;6.47;;
4694;SDS011;2361;49.540;8.390;2023-06-22T02:42:37;8.97;;;6.47;;
4694;SDS011;2361;49.540;8.390;2023-06-22T02:45:06;8.37;;;6.73;;
4694;SDS011;2361;49.540;8.390;2023-06-22T02:47:33;11.00;;;7.60;;
4694;SDS011;2361;49.540;8.390;2023-06-22T02:50:00;11.63;;;7.93;;
4694;SDS011;2361;49.540;8.390;2023-06-22T02:52:27;9.90;;;6.70;;
4694;SDS011;2361;49.540;8.390;2023-06-22T02:54:54;11.30;;;7.37;;
4694;SDS011;2361;49.540;8.390;2023-06-22T02:57:21;10.03;;;6.43;;
4694;SDS011;2361;49.540;8.390;2023-06-22T02:59:48;9.40;;;6.60;;
4694;SDS011;2361;49.540;8.390;2023-06-22T03:02:15;6.53;;;5.10;;
4694;SDS011;2361;49.540;8.390;2023-06-22T03:04:42;6.63;;;5.33;;
4694;SDS011;2361;49.540;8.390;2023-06-22T03:07:09;11.07;;;6.40;;
4694;SDS011;2361;49.540;8.390;2023-06-22T03:09:36;10.33;;;7.17;;
4694;SDS011;2361;49.540;8.390;2023-06-22T03:12:03;9.30;;;6.77;;
4694;SDS011;2361;49.540;8.390;2023-06-22T03:14:31;8.50;;;6.17;;
4694;SDS011;2361;49.540;8.390;2023-06-22T03:16:58;6.83;;;5.47;;
4694;SDS011;2361;49.540;8.390;2023-06-22T03:19:29;5.97;;;4.90;;
4694;SDS011;2361;49.540;8.390;2023-06-22T03:21:59;9.40;;;6.50;;
4694;SDS011;2361;49.540;8.390;2023-06-22T03:24:26;7.23;;;5.30;;
4694;SDS011;2361;49.540;8.390;2023-06-22T03:26:56;6.57;;;5.00;;
4694;SDS011;2361;49.540;8.390;2023-06-22T03:29:24;5.63;;;4.13;;
4694;SDS011;2361;49.540;8.390;2023-06-22T03:31:53;7.77;;;6.07;;
4694;SDS011;2361;49.540;8.390;2023-06-22T03:34:20;6.37;;;4.90;;
4694;SDS011;2361;49.540;8.390;2023-06-22T03:36:47;5.90;;;4.27;;
4694;SDS011;2361;49.540;8.390;2023-06-22T03:39:14;6.80;;;5.03;;
4694;SDS011;2361;49.540;8.390;2023-06-22T03:41:41;8.63;;;6.10;;
4694;SDS011;2361;49.540;8.390;2023-06-22T03:44:08;7.40;;;5.83;;
4694;SDS011;2361;49.540;8.390;2023-06-22T03:46:38;7.00;;;5.47;;
4694;SDS011;2361;49.540;8.390;2023-06-22T03:49:05;5.63;;;4.43;;
4694;SDS011;2361;49.540;8.390;2023-06-22T03:51:33;6.30;;;5.17;;
4694;SDS011;2361;49.540;8.390;2023-06-22T03:54:00;5.87;;;5.00;;
4694;SDS011;2361;49.540;8.390;2023-06-22T03:56:27;5.13;;;4.47;;
4694;SDS011;2361;49.540;8.390;2023-06-22T03:58:54;6.77;;;4.63;;
4694;SDS011;2361;49.540;8.390;2023-06-22T04:01:21;8.60;;;6.20;;
4694;SDS011;2361;49.540;8.390;2023-06-22T04:03:48;7.50;;;6.10;;
4694;SDS011;2361;49.540;8.390;2023-06-22T04:06:15;8.43;;;5.50;;
4694;SDS011;2361;49.540;8.390;2023-06-22T04:08:44;9.27;;;6.53;;
4694;SDS011;2361;49.540;8.390;2023-06-22T04:11:17;9.00;;;6.80;;
4694;SDS011;2361;49.540;8.390;2023-06-22T04:13:44;9.30;;;6.87;;
4694;SDS011;2361;49.540;8.390;2023-06-22T04:16:11;8.97;;;6.50;;
4694;SDS011;2361;49.540;8.390;2023-06-22T04:18:39;10.23;;;6.60;;
4694;SDS011;2361;49.540;8.390;2023-06-22T04:21:06;9.27;;;6.83;;
4694;SDS011;2361;49.540;8.390;2023-06-22T04:23:33;10.50;;;7.23;;
4694;SDS011;2361;49.540;8.390;2023-06-22T04:26:00;10.10;;;7.30;;
4694;SDS011;2361;49.540;8.390;2023-06-22T04:28:27;7.50;;;5.70;;
4694;SDS011;2361;49.540;8.390;2023-06-22T04:30:54;10.37;;;7.03;;
4694;SDS011;2361;49.540;8.390;2023-06-22T04:33:24;9.80;;;5.80;;
4694;SDS011;2361;49.540;8.390;2023-06-22T04:35:51;8.70;;;6.27;;
4694;SDS011;2361;49.540;8.390;2023-06-22T04:38:18;8.40;;;6.63;;
4694;SDS011;2361;49.540;8.390;2023-06-22T04:40:47;9.00;;;6.37;;
4694;SDS011;2361;49.540;8.390;2023-06-22T04:43:15;11.00;;;7.77;;
4694;SDS011;2361;49.540;8.390;2023-06-22T04:45:43;7.97;;;6.43;;
4694;SDS011;2361;49.540;8.390;2023-06-22T04:48:10;8.03;;;6.40;;
4694;SDS011;2361;49.540;8.390;2023-06-22T04:50:42;6.47;;;5.60;;
4694;SDS011;2361;49.540;8.390;2023-06-22T04:53:10;10.00;;;7.40;;
4694;SDS011;2361;49.540;8.390;2023-06-22T04:55:39;8.73;;;6.33;;
4694;SDS011;2361;49.540;8.390;2023-06-22T04:58:08;6.03;;;5.30;;
4694;SDS011;2361;49.540;8.390;2023-06-22T05:00:35;8.13;;;6.40;;
4694;SDS011;2361;49.540;8.390;2023-06-22T05:03:05;8.87;;;7.20;;
4694;SDS011;2361;49.540;8.390;2023-06-22T05:05:44;8.57;;;6.40;;
4694;SDS011;2361;49.540;8.390;2023-06-22T05:08:12;8.50;;;6.10;;
4694;SDS011;2361;49.540;8.390;2023-06-22T05:10:42;8.93;;;6.73;;
4694;SDS011;2361;49.540;8.390;2023-06-22T05:13:25;7.53;;;5.90;;
4694;SDS011;2361;49.540;8.390;2023-06-22T05:15:52;12.23;;;7.87;;
4694;SDS011;2361;49.540;8.390;2023-06-22T05:18:28;6.97;;;5.40;;
4694;SDS011;2361;49.540;8.390;2023-06-22T05:20:57;7.70;;;6.37;;
4694;SDS011;2361;49.540;8.390;2023-06-22T05:23:26;13.70;;;6.60;;
4694;SDS011;2361;49.540;8.390;2023-06-22T05:25:53;7.93;;;5.47;;
4694;SDS011;2361;49.540;8.390;2023-06-22T05:28:24;7.53;;;5.53;;
4694;SDS011;2361;49.540;8.390;2023-06-22T05:30:51;7.33;;;6.27;;
4694;SDS011;2361;49.540;8.390;2023-06-22T05:33:18;7.33;;;5.90;;
4694;SDS011;2361;49.540;8.390;2023-06-22T05:35:45;9.47;;;6.90;;
4694;SDS011;2361;49.540;8.390;2023-06-22T05:38:13;11.63;;;7.20;;
4694;SDS011;2361;49.540;8.390;2023-06-22T05:40:40;11.60;;;7.77;;
4694;SDS011;2361;49.540;8.390;2023-06-22T05:43:07;9.50;;;7.60;;
4694;SDS011;2361;49.540;8.390;2023-06-22T05:45:34;10.50;;;6.97;;
4694;SDS011;2361;49.540;8.390;2023-06-22T05:48:01;8.50;;;6.57;;
4694;SDS011;2361;49.540;8.390;2023-06-22T05:50:28;10.27;;;7.67;;
4694;SDS011;2361;49.540;8.390;2023-06-22T05:52:55;12.23;;;8.30;;
4694;SDS011;2361;49.540;8.390;2023-06-22T05:55:22;10.60;;;8.20;;
4694;SDS011;2361;49.540;8.390;2023-06-22T05:57:49;8.67;;;6.37;;
4694;SDS011;2361;49.540;8.390;2023-06-22T06:00:16;9.07;;;6.30;;
4694;SDS011;2361;49.540;8.390;2023-06-22T06:02:44;7.57;;;6.33;;
4694;SDS011;2361;49.540;8.390;2023-06-22T06:05:11;7.60;;;6.73;;
4694;SDS011;2361;49.540;8.390;2023-06-22T06:07:41;5.13;;;4.60;;
4694;SDS011;2361;49.540;8.390;2023-06-22T06:10:09;6.30;;;4.00;;
4694;SDS011;2361;49.540;8.390;2023-06-22T06:12:36;8.63;;;7.10;;
4694;SDS011;2361;49.540;8.390;2023-06-22T06:15:04;11.53;;;7.07;;
4694;SDS011;2361;49.540;8.390;2023-06-22T06:17:32;6.37;;;5.63;;
4694;SDS011;2361;49.540;8.390;2023-06-22T06:19:59;9.13;;;5.63;;
4694;SDS011;2361;49.540;8.390;2023-06-22T06:22:28;7.87;;;6.37;;
4694;SDS011;2361;49.540;8.390;2023-06-22T06:24:55;6.50;;;5.83;;
4694;SDS011;2361;49.540;8.390;2023-06-22T06:27:23;8.00;;;6.40;;
4694;SDS011;2361;49.540;8.390;2023-06-22T06:29:55;8.17;;;4.17;;
4694;SDS011;2361;49.540;8.390;2023-06-22T06:32:22;8.77;;;6.80;;
4694;SDS011;2361;49.540;8.390;2023-06-22T06:34:50;7.70;;;6.27;;
4694;SDS011;2361;49.540;8.390;2023-06-22T06:37:17;6.77;;;5.77;;
4694;SDS011;2361;49.540;8.390;2023-06-22T06:39:44;5.37;;;4.90;;
4694;SDS011;2361;49.540;8.390;2023-06-22T06:42:11;6.90;;;5.87;;
4694;SDS011;2361;49.540;8.390;2023-06-22T06:44:38;7.17;;;5.97;;
4694;SDS011;2361;49.540;8.390;2023-06-22T06:47:05;8.17;;;6.53;;
4694;SDS011;2361;49.540;8.390;2023-06-22T06:49:33;6.40;;;5.30;;
4694;SDS011;2361;49.540;8.390;2023-06-22T06:52:00;6.03;;;5.43;;
4694;SDS011;2361;49.540;8.390;2023-06-22T06:54:27;6.63;;;5.87;;
4694;SDS011;2361;49.540;8.390;2023-06-22T06:56:54;6.47;;;5.87;;
4694;SDS011;2361;49.540;8.390;2023-06-22T06:59:21;3.90;;;3.30;;
4694;SDS011;2361;49.540;8.390;2023-06-22T07:01:48;6.40;;;4.90;;
4694;SDS011;2361;49.540;8.390;2023-06-22T07:04:15;6.60;;;6.00;;
4694;SDS011;2361;49.540;8.390;2023-06-22T07:06:42;6.40;;;5.80;;
4694;SDS011;2361;49.540;8.390;2023-06-22T07:09:09;8.00;;;6.93;;
4694;SDS011;2361;49.540;8.390;2023-06-22T07:11:36;5.30;;;4.90;;
4694;SDS011;2361;49.540;8.390;2023-06-22T07:14:03;6.10;;;5.60;;
4694;SDS011;2361;49.540;8.390;2023-06-22T07:16:31;5.37;;;4.90;;
4694;SDS011;2361;49.540;8.390;2023-06-22T07:18:59;7.03;;;6.37;;
4694;SDS011;2361;49.540;8.390;2023-06-22T07:21:26;6.07;;;5.50;;
4694;SDS011;2361;49.540;8.390;2023-06-22T07:23:53;4.70;;;4.23;;
4694;SDS011;2361;49.540;8.390;2023-06-22T07:26:21;5.90;;;5.40;;
4694;SDS011;2361;49.540;8.390;2023-06-22T07:28:48;6.50;;;5.87;;
4694;SDS011;2361;49.540;8.390;2023-06-22T07:31:17;6.93;;;5.13;;
4694;SDS011;2361;49.540;8.390;2023-06-22T07:33:44;5.03;;;4.63;;
4694;SDS011;2361;49.540;8.390;2023-06-22T07:36:10;4.90;;;4.50;;
4694;SDS011;2361;49.540;8.390;2023-06-22T07:38:38;5.67;;;5.00;;
4694;SDS011;2361;49.540;8.390;2023-06-22T07:41:05;5.53;;;5.10;;
4694;SDS011;2361;49.540;8.390;2023-06-22T07:43:32;5.20;;;4.77;;
4694;SDS011;2361;49.540;8.390;2023-06-22T07:46:01;4.57;;;4.17;;
4694;SDS011;2361;49.540;8.390;2023-06-22T07:48:27;4.83;;;4.40;;
4694;SDS011;2361;49.540;8.390;2023-06-22T07:50:55;7.50;;;5.57;;
4694;SDS011;2361;49.540;8.390;2023-06-22T07:53:22;5.63;;;5.23;;
4694;SDS011;2361;49.540;8.390;2023-06-22T07:55:50;4.70;;;4.40;;
4694;SDS011;2361;49.540;8.390;2023-06-22T07:58:17;5.30;;;4.90;;
4694;SDS011;2361;49.540;8.390;2023-06-22T08:00:45;4.10;;;3.77;;
4694;SDS011;2361;49.540;8.390;2023-06-22T08:03:13;4.97;;;4.57;;
4694;SDS011;2361;49.540;8.390;2023-06-22T08:05:40;4.50;;;4.10;;
4694;SDS011;2361;49.540;8.390;2023-06-22T08:08:07;5.00;;;4.50;;
4694;SDS011;2361;49.540;8.390;2023-06-22T08:10:36;4.20;;;4.00;;
4694;SDS011;2361;49.540;8.390;2023-06-22T08:13:03;5.03;;;4.53;;
4694;SDS011;2361;49.540;8.390;2023-06-22T08:15:30;5.07;;;4.70;;
4694;SDS011;2361;49.540;8.390;2023-06-22T08:17:58;4.90;;;4.60;;
4694;SDS011;2361;49.540;8.390;2023-06-22T08:20:26;3.73;;;3.53;;
4694;SDS011;2361;49.540;8.390;2023-06-22T08:22:54;6.00;;;4.13;;
4694;SDS011;2361;49.540;8.390;2023-06-22T08:25:22;3.53;;;3.33;;
4694;SDS011;2361;49.540;8.390;2023-06-22T08:27:49;4.40;;;4.10;;
4694;SDS011;2361;49.540;8.390;2023-06-22T08:30:16;5.70;;;5.20;;
4694;SDS011;2361;49.540;8.390;2023-06-22T08:32:45;4.10;;;3.80;;
4694;SDS011;2361;49.540;8.390;2023-06-22T08:35:12;4.67;;;4.37;;
4694;SDS011;2361;49.540;8.390;2023-06-22T08:37:39;4.93;;;4.57;;
4694;SDS011;2361;49.540;8.390;2023-06-22T08:40:07;5.97;;;5.53;;
4694;SDS011;2361;49.540;8.390;2023-06-22T08:42:37;5.07;;;4.77;;
4694;SDS011;2361;49.540;8.390;2023-06-22T08:45:06;3.13;;;2.93;;
4694;SDS011;2361;49.540;8.390;2023-06-22T08:47:34;5.43;;;5.13;;
4694;SDS011;2361;49.540;8.390;2023-06-22T08:50:01;4.77;;;4.47;;
4694;SDS011;2361;49.540;8.390;2023-06-22T08:52:29;5.37;;;5.00;;
4694;SDS011;2361;49.540;8.390;2023-06-22T08:54:56;4.10;;;3.80;;
4694;SDS011;2361;49.540;8.390;2023-06-22T08:57:27;4.30;;;4.10;;
4694;SDS011;2361;49.540;8.390;2023-06-22T08:59:55;5.07;;;4.70;;
4694;SDS011;2361;49.540;8.390;2023-06-22T09:02:25;4.20;;;4.00;;
4694;SDS011;2361;49.540;8.390;2023-06-22T09:04:57;3.53;;;3.30;;
4694;SDS011;2361;49.540;8.390;2023-06-22T09:07:24;3.17;;;2.97;;
4694;SDS011;2361;49.540;8.390;2023-06-22T09:09:52;3.13;;;2.93;;
4694;SDS011;2361;49.540;8.390;2023-06-22T09:12:19;3.37;;;3.17;;
4694;SDS011;2361;49.540;8.390;2023-06-22T09:14:51;2.97;;;2.83;;
4694;SDS011;2361;49.540;8.390;2023-06-22T09:17:18;3.70;;;3.40;;
4694;SDS011;2361;49.540;8.390;2023-06-22T09:19:45;3.70;;;3.50;;
4694;SDS011;2361;49.540;8.390;2023-06-22T09:22:14;4.10;;;3.80;;
4694;SDS011;2361;49.540;8.390;2023-06-22T09:24:41;3.20;;;3.00;;
4694;SDS011;2361;49.540;8.390;2023-06-22T09:27:08;3.97;;;3.73;;
4694;SDS011;2361;49.540;8.390;2023-06-22T09:29:35;4.93;;;4.53;;
4694;SDS011;2361;49.540;8.390;2023-06-22T09:32:02;3.33;;;3.23;;
4694;SDS011;2361;49.540;8.390;2023-06-22T09:34:29;3.03;;;2.83;;
4694;SDS011;2361;49.540;8.390;2023-06-22T09:36:58;3.10;;;2.90;;
4694;SDS011;2361;49.540;8.390;2023-06-22T09:39:26;3.50;;;3.40;;
4694;SDS011;2361;49.540;8.390;2023-06-22T09:41:55;3.80;;;3.50;;
4694;SDS011;2361;49.540;8.390;2023-06-22T09:44:24;3.10;;;3.00;;
4694;SDS011;2361;49.540;8.390;2023-06-22T09:46:51;3.57;;;3.40;;
4694;SDS011;2361;49.540;8.390;2023-06-22T09:49:18;4.33;;;3.97;;
4694;SDS011;2361;49.540;8.390;2023-06-22T09:51:53;3.00;;;2.90;;
4694;SDS011;2361;49.540;8.390;2023-06-22T09:54:20;4.63;;;3.37;;
4694;SDS011;2361;49.540;8.390;2023-06-22T09:56:47;3.17;;;3.07;;
4694;SDS011;2361;49.540;8.390;2023-06-22T09:59:14;3.13;;;3.03;;
4694;SDS011;2361;49.540;8.390;2023-06-22T10:01:44;2.93;;;2.50;;
4694;SDS011;2361;49.540;8.390;2023-06-22T10:04:11;3.47;;;3.27;;
4694;SDS011;2361;49.540;8.390;2023-06-22T10:06:38;3.63;;;3.10;;
4694;SDS011;2361;49.540;8.390;2023-06-22T10:09:07;3.37;;;3.17;;
4694;SDS011;2361;49.540;8.390;2023-06-22T10:11:34;2.60;;;2.50;;
4694;SDS011;2361;49.540;8.390;2023-06-22T10:14:02;3.00;;;2.90;;
4694;SDS011;2361;49.540;8.390;2023-06-22T10:16:30;2.80;;;2.60;;
4694;SDS011;2361;49.540;8.390;2023-06-22T10:18:58;2.50;;;1.70;;
4694;SDS011;2361;49.540;8.390;2023-06-22T10:21:25;3.13;;;2.93;;
4694;SDS011;2361;49.540;8.390;2023-06-22T10:23:53;2.83;;;2.63;;
4694;SDS011;2361;49.540;8.390;2023-06-22T10:26:21;3.50;;;3.20;;
4694;SDS011;2361;49.540;8.390;2023-06-22T10:28:49;3.90;;;3.60;;
4694;SDS011;2361;49.540;8.390;2023-06-22T10:31:22;2.87;;;2.67;;
4694;SDS011;2361;49.540;8.390;2023-06-22T10:33:49;3.30;;;3.00;;
4694;SDS011;2361;49.540;8.390;2023-06-22T10:36:16;3.67;;;3.37;;
4694;SDS011;2361;49.540;8.390;2023-06-22T10:38:43;2.80;;;2.60;;
4694;SDS011;2361;49.540;8.390;2023-06-22T10:41:11;4.53;;;2.47;;
4694;SDS011;2361;49.540;8.390;2023-06-22T10:43:38;6.00;;;3.40;;
4694;SDS011;2361;49.540;8.390;2023-06-22T10:46:06;2.93;;;2.73;;
4694;SDS011;2361;49.540;8.390;2023-06-22T10:48:33;4.70;;;3.57;;
4694;SDS011;2361;49.540;8.390;2023-06-22T10:51:00;0.70;;;0.70;;
4694;SDS011;2361;49.540;8.390;2023-06-22T10:53:27;4.07;;;3.20;;
4694;SDS011;2361;49.540;8.390;2023-06-22T10:55:54;4.60;;;3.73;;
4694;SDS011;2361;49.540;8.390;2023-06-22T10:58:23;5.10;;;3.10;;
4694;SDS011;2361;49.540;8.390;2023-06-22T11:00:50;3.50;;;3.20;;
4694;SDS011;2361;49.540;8.390;2023-06-22T11:03:17;5.03;;;3.70;;
4694;SDS011;2361;49.540;8.390;2023-06-22T11:05:44;7.23;;;3.10;;
4694;SDS011;2361;49.540;8.390;2023-06-22T11:08:12;4.30;;;3.23;;
4694;SDS011;2361;49.540;8.390;2023-06-22T11:10:39;3.67;;;3.37;;
4694;SDS011;2361;49.540;8.390;2023-06-22T11:13:06;5.10;;;3.17;;
4694;SDS011;2361;49.540;8.390;2023-06-22T11:15:36;4.10;;;3.27;;
4694;SDS011;2361;49.540;8.390;2023-06-22T11:18:06;5.13;;;3.87;;
4694;SDS011;2361;49.540;8.390;2023-06-22T11:20:33;3.37;;;3.03;;
4694;SDS011;2361;49.540;8.390;2023-06-22T11:23:05;4.40;;;3.57;;
4694;SDS011;2361;49.540;8.390;2023-06-22T11:25:35;2.90;;;2.70;;
4694;SDS011;2361;49.540;8.390;2023-06-22T11:28:04;4.27;;;3.43;;
4694;SDS011;2361;49.540;8.390;2023-06-22T11:30:31;3.93;;;3.53;;
4694;SDS011;2361;49.540;8.390;2023-06-22T11:32:58;5.47;;;4.97;;
4694;SDS011;2361;49.540;8.390;2023-06-22T11:35:28;3.50;;;3.20;;
4694;SDS011;2361;49.540;8.390;2023-06-22T11:37:55;3.37;;;3.07;;
4694;SDS011;2361;49.540;8.390;2023-06-22T11:40:22;4.70;;;3.40;;
4694;SDS011;2361;49.540;8.390;2023-06-22T11:42:49;5.03;;;3.43;;
4694;SDS011;2361;49.540;8.390;2023-06-22T11:45:16;10.97;;;5.90;;
4694;SDS011;2361;49.540;8.390;2023-06-22T11:47:45;13.50;;;8.80;;
4694;SDS011;2361;49.540;8.390;2023-06-22T11:50:12;4.90;;;3.30;;
4694;SDS011;2361;49.540;8.390;2023-06-22T11:52:39;4.70;;;3.20;;
4694;SDS011;2361;49.540;8.390;2023-06-22T11:55:07;3.37;;;2.70;;
4694;SDS011;2361;49.540;8.390;2023-06-22T11:57:35;3.10;;;2.87;;
4694;SDS011;2361;49.540;8.390;2023-06-22T12:00:03;7.13;;;3.30;;
4694;SDS011;2361;49.540;8.390;2023-06-22T12:02:42;3.50;;;2.90;;
4694;SDS011;2361;49.540;8.390;2023-06-22T12:05:11;2.63;;;2.43;;
4694;SDS011;2361;49.540;8.390;2023-06-22T12:07:38;4.17;;;3.70;;
4694;SDS011;2361;49.540;8.390;2023-06-22T12:10:05;4.40;;;3.07;;
4694;SDS011;2361;49.540;8.390;2023-06-22T12:12:33;3.73;;;2.87;;
4694;SDS011;2361;49.540;8.390;2023-06-22T12:15:00;3.70;;;3.40;;
4694;SDS011;2361;49.540;8.390;2023-06-22T12:17:29;4.73;;;3.40;;
4694;SDS011;2361;49.540;8.390;2023-06-22T12:19:57;3.57;;;3.27;;
4694;SDS011;2361;49.540;8.390;2023-06-22T12:22:24;4.27;;;2.83;;
4694;SDS011;2361;49.540;8.390;2023-06-22T12:24:51;4.13;;;2.60;;
4694;SDS011;2361;49.540;8.390;2023-06-22T12:27:18;2.73;;;2.53;;
4694;SDS011;2361;49.540;8.390;2023-06-22T12:29:45;5.03;;;3.80;;
4694;SDS011;2361;49.540;8.390;2023-06-22T12:32:13;3.50;;;3.20;;
4694;SDS011;2361;49.540;8.390;2023-06-22T12:34:41;4.33;;;3.93;;
4694;SDS011;2361;49.540;8.390;2023-06-22T12:37:09;3.13;;;2.93;;
4694;SDS011;2361;49.540;8.390;2023-06-22T12:39:37;2.83;;;2.57;;
4694;SDS011;2361;49.540;8.390;2023-06-22T12:42:08;5.30;;;4.00;;
4694;SDS011;2361;49.540;8.390;2023-06-22T12:44:35;4.40;;;3.20;;
4694;SDS011;2361;49.540;8.390;2023-06-22T12:47:04;3.13;;;2.83;;
4694;SDS011;2361;49.540;8.390;2023-06-22T12:49:32;2.70;;;2.50;;
4694;SDS011;2361;49.540;8.390;2023-06-22T12:51:59;3.80;;;3.40;;
4694;SDS011;2361;49.540;8.390;2023-06-22T12:54:26;3.63;;;3.33;;
4694;SDS011;2361;49.540;8.390;2023-06-22T12:56:54;11.17;;;3.60;;
4694;SDS011;2361;49.540;8.390;2023-06-22T12:59:21;3.80;;;3.50;;
4694;SDS011;2361;49.540;8.390;2023-06-22T13:01:49;1.93;;;1.83;;
4694;SDS011;2361;49.540;8.390;2023-06-22T13:04:16;3.13;;;2.60;;
4694;SDS011;2361;49.540;8.390;2023-06-22T13:06:44;4.80;;;3.07;;
4694;SDS011;2361;49.540;8.390;2023-06-22T13:09:18;3.13;;;2.87;;
4694;SDS011;2361;49.540;8.390;2023-06-22T13:11:47;5.73;;;3.20;;
4694;SDS011;2361;49.540;8.390;2023-06-22T13:14:14;6.37;;;3.30;;
4694;SDS011;2361;49.540;8.390;2023-06-22T13:16:42;4.43;;;2.77;;
4694;SDS011;2361;49.540;8.390;2023-06-22T13:19:09;3.70;;;3.40;;
4694;SDS011;2361;49.540;8.390;2023-06-22T13:21:36;8.70;;;5.80;;
4694;SDS011;2361;49.540;8.390;2023-06-22T13:24:03;7.33;;;4.60;;
4694;SDS011;2361;49.540;8.390;2023-06-22T13:26:32;8.20;;;4.27;;
4694;SDS011;2361;49.540;8.390;2023-06-22T13:28:59;7.77;;;4.00;;
4694;SDS011;2361;49.540;8.390;2023-06-22T13:31:26;3.40;;;3.10;;
4694;SDS011;2361;49.540;8.390;2023-06-22T13:33:53;3.53;;;3.03;;
4694;SDS011;2361;49.540;8.390;2023-06-22T13:36:20;2.80;;;2.60;;
4694;SDS011;2361;49.540;8.390;2023-06-22T13:38:49;5.20;;;3.80;;
4694;SDS011;2361;49.540;8.390;2023-06-22T13:41:16;4.07;;;3.10;;
4694;SDS011;2361;49.540;8.390;2023-06-22T13:43:43;4.63;;;2.67;;
4694;SDS011;2361;49.540;8.390;2023-06-22T13:46:10;4.20;;;3.90;;
4694;SDS011;2361;49.540;8.390;2023-06-22T13:48:37;5.20;;;3.90;;
4694;SDS011;2361;49.540;8.390;2023-06-22T13:51:04;4.87;;;2.80;;
4694;SDS011;2361;49.540;8.390;2023-06-22T13:53:32;3.73;;;3.40;;
4694;SDS011;2361;49.540;8.390;2023-06-22T13:55:59;4.00;;;3.17;;
4694;SDS011;2361;49.540;8.390;2023-06-22T13:58:26;3.30;;;2.83;;
4694;SDS011;2361;49.540;8.390;2023-06-22T14:00:53;11.70;;;3.70;;
4694;SDS011;2361;49.540;8.390;2023-06-22T14:03:22;4.10;;;2.53;;
4694;SDS011;2361;49.540;8.390;2023-06-22T14:05:49;5.70;;;2.63;;
4694;SDS011;2361;49.540;8.390;2023-06-22T14:08:16;7.07;;;3.57;;
4694;SDS011;2361;49.540;8.390;2023-06-22T14:11:03;8.33;;;2.50;;
4694;SDS011;2361;49.540;8.390;2023-06-22T14:13:30;2.93;;;2.73;;
4694;SDS011;2361;49.540;8.390;2023-06-22T14:15:57;3.43;;;3.13;;
4694;SDS011;2361;49.540;8.390;2023-06-22T14:18:24;4.13;;;3.20;;
4694;SDS011;2361;49.540;8.390;2023-06-22T14:20:51;9.63;;;2.97;;
4694;SDS011;2361;49.540;8.390;2023-06-22T14:23:21;3.40;;;3.10;;
4694;SDS011;2361;49.540;8.390;2023-06-22T14:25:48;3.90;;;2.47;;
4694;SDS011;2361;49.540;8.390;2023-06-22T14:28:15;2.00;;;1.80;;
4694;SDS011;2361;49.540;8.390;2023-06-22T14:30:42;3.40;;;3.07;;
4694;SDS011;2361;49.540;8.390;2023-06-22T14:33:10;3.43;;;3.13;;
4694;SDS011;2361;49.540;8.390;2023-06-22T14:35:38;8.30;;;3.40;;
4694;SDS011;2361;49.540;8.390;2023-06-22T14:38:06;4.43;;;2.60;;
4694;SDS011;2361;49.540;8.390;2023-06-22T14:40:33;13.13;;;7.37;;
4694;SDS011;2361;49.540;8.390;2023-06-22T14:43:09;6.83;;;4.20;;
4694;SDS011;2361;49.540;8.390;2023-06-22T14:45:36;5.93;;;4.50;;
4694;SDS011;2361;49.540;8.390;2023-06-22T14:48:03;8.90;;;3.33;;
4694;SDS011;2361;49.540;8.390;2023-06-22T14:50:30;7.30;;;4.00;;
4694;SDS011;2361;49.540;8.390;2023-06-22T14:52:57;4.30;;;3.10;;
4694;SDS011;2361;49.540;8.390;2023-06-22T14:55:24;4.40;;;3.60;;
4694;SDS011;2361;49.540;8.390;2023-06-22T14:57:51;10.87;;;3.50;;
4694;SDS011;2361;49.540;8.390;2023-06-22T15:00:18;4.43;;;3.83;;
4694;SDS011;2361;49.540;8.390;2023-06-22T15:02:46;10.50;;;3.33;;
4694;SDS011;2361;49.540;8.390;2023-06-22T15:05:13;3.80;;;3.10;;
4694;SDS011;2361;49.540;8.390;2023-06-22T15:07:40;9.53;;;3.17;;
4694;SDS011;2361;49.540;8.390;2023-06-22T15:10:07;4.57;;;3.30;;
4694;SDS011;2361;49.540;8.390;2023-06-22T15:12:35;3.70;;;3.10;;
4694;SDS011;2361;49.540;8.390;2023-06-22T15:15:02;8.63;;;3.57;;
4694;SDS011;2361;49.540;8.390;2023-06-22T15:17:30;6.10;;;3.60;;
4694;SDS011;2361;49.540;8.390;2023-06-22T15:19:57;2.30;;;1.60;;
4694;SDS011;2361;49.540;8.390;2023-06-22T15:22:25;3.60;;;2.83;;
4694;SDS011;2361;49.540;8.390;2023-06-22T15:24:52;7.00;;;3.17;;
4694;SDS011;2361;49.540;8.390;2023-06-22T15:27:24;3.80;;;2.97;;